Valley, Washington
Current Conditions -  °F | °C
As of 9:53 AM on Sunday 21 Dec 2014 (Local Time) from KDEW Reporting Station
Clear Clear  
Wind Chill: 38°   Ceiling: Unl
Heat Index: 44°   Visibility: 10mi
Dew Point: 36°   Wind: 12mph
Humidity: 73%   Direction: 230°SW
Pressure: 29.74"   Gusts: NA
Location:  48.17°N, 117.73°W
Report Text: KDEW 211753Z AUTO 23010KT 10SM CLR 07/02 A2974 RMK AO2 SLP081 T00670022 10078 20033 53039
Loading
Personal Weather Stations






























Interactive Weather Map New forecast layout! Learn more

10-Day Weather Forecast

Advertisements
Track Severe Weather on mobile